createdAt,value
2022-08-07T00:01:44.040Z,25.53
2022-08-07T00:04:15.624Z,25.53
2022-08-07T00:06:51.743Z,25.24
2022-08-07T00:09:26.631Z,25.18
2022-08-07T00:12:01.479Z,25.11
2022-08-07T00:14:31.795Z,25.01
2022-08-07T00:17:02.918Z,24.87
2022-08-07T00:19:59.859Z,24.85
2022-08-07T00:22:24.917Z,24.80
2022-08-07T00:25:06.909Z,24.74
2022-08-07T00:27:51.837Z,24.68
2022-08-07T00:30:27.975Z,24.59
2022-08-07T00:33:01.191Z,24.53
2022-08-07T00:35:31.438Z,24.53
2022-08-07T00:38:03.605Z,24.47
2022-08-07T00:40:40.150Z,24.36
2022-08-07T00:43:59.373Z,24.30
2022-08-07T00:46:02.364Z,24.25
2022-08-07T00:48:32.629Z,24.20
2022-08-07T00:51:03.513Z,24.18
2022-08-07T00:53:39.046Z,24.23
2022-08-07T00:56:19.602Z,24.27
2022-08-07T00:58:50.015Z,24.16
2022-08-07T01:01:19.809Z,24.08
2022-08-07T01:03:56.941Z,24.05
2022-08-07T01:06:30.379Z,23.94
2022-08-07T01:09:01.063Z,23.85
2022-08-07T01:12:09.982Z,23.80
2022-08-07T01:14:28.279Z,23.76
2022-08-07T01:16:57.398Z,23.62
2022-08-07T01:19:27.829Z,23.44
2022-08-07T01:22:03.171Z,23.38
2022-08-07T01:24:32.055Z,23.36
2022-08-07T01:27:01.840Z,23.37
2022-08-07T01:29:34.177Z,23.37
2022-08-07T01:32:05.468Z,23.31
2022-08-07T01:34:34.962Z,23.19
2022-08-07T01:37:03.507Z,23.06
2022-08-07T01:39:39.682Z,22.98
2022-08-07T01:42:38.291Z,22.88
2022-08-07T01:45:09.674Z,22.87
2022-08-07T01:48:18.555Z,22.93
2022-08-07T01:50:34.589Z,22.91
2022-08-07T01:53:08.808Z,22.83
2022-08-07T01:55:59.760Z,22.80
2022-08-07T01:58:33.852Z,22.67
2022-08-07T02:01:44.808Z,22.59
2022-08-07T02:04:17.425Z,22.52
2022-08-07T02:06:47.285Z,22.41
2022-08-07T02:09:51.854Z,22.36
2022-08-07T02:12:18.180Z,22.28
2022-08-07T02:14:51.426Z,22.21
2022-08-07T02:17:27.733Z,22.18
2022-08-07T02:20:07.455Z,22.19
2022-08-07T02:22:43.733Z,22.14
2022-08-07T02:25:18.128Z,22.03
2022-08-07T02:27:51.959Z,21.98
2022-08-07T02:30:21.991Z,21.92
2022-08-07T02:33:03.618Z,21.86
2022-08-07T02:36:28.872Z,21.79
2022-08-07T02:38:31.661Z,21.76
2022-08-07T02:41:03.831Z,21.70
2022-08-07T02:43:34.095Z,21.61
2022-08-07T02:46:05.921Z,21.55
2022-08-07T02:48:34.687Z,21.55
2022-08-07T02:51:28.876Z,21.52
2022-08-07T02:54:04.090Z,21.44
2022-08-07T02:56:34.240Z,21.40
2022-08-07T02:59:07.440Z,21.41
2022-08-07T03:01:40.237Z,21.40
2022-08-07T03:04:12.661Z,21.42
2022-08-07T03:06:46.206Z,21.39
2022-08-07T03:09:43.838Z,21.37
2022-08-07T03:12:16.141Z,21.30
2022-08-07T03:14:52.842Z,21.29
2022-08-07T03:17:22.188Z,21.28
2022-08-07T03:19:54.830Z,21.15
2022-08-07T03:22:29.651Z,21.09
2022-08-07T03:25:00.961Z,21.07
2022-08-07T03:27:58.779Z,20.99
2022-08-07T03:30:19.440Z,20.91
2022-08-07T03:32:58.396Z,20.83
2022-08-07T03:35:43.926Z,20.81
2022-08-07T03:38:21.213Z,20.77
2022-08-07T03:40:57.326Z,20.73
2022-08-07T03:43:32.362Z,20.62
2022-08-07T03:46:04.250Z,20.60
2022-08-07T03:49:02.929Z,20.61
2022-08-07T03:51:47.125Z,20.60
2022-08-07T03:54:35.713Z,20.55
2022-08-07T03:57:07.363Z,20.49
2022-08-07T03:59:36.408Z,20.47
2022-08-07T04:02:16.160Z,20.44
2022-08-07T04:04:46.001Z,20.46
2022-08-07T04:07:17.510Z,20.45
2022-08-07T04:09:50.278Z,20.41
2022-08-07T04:12:27.462Z,20.36
2022-08-07T04:15:00.325Z,20.33
2022-08-07T04:17:31.066Z,20.28
2022-08-07T04:20:18.281Z,20.20
2022-08-07T04:22:53.671Z,20.17
2022-08-07T04:25:31.667Z,20.20
2022-08-07T04:28:09.441Z,20.19
2022-08-07T04:30:55.545Z,20.19
2022-08-07T04:33:27.862Z,20.20
2022-08-07T04:35:57.041Z,20.20
2022-08-07T04:38:27.855Z,20.19
2022-08-07T04:40:57.111Z,20.20
2022-08-07T04:44:13.091Z,20.18
2022-08-07T04:46:59.677Z,20.12
2022-08-07T04:50:03.692Z,20.12
2022-08-07T04:53:09.150Z,20.05
2022-08-07T04:58:10.890Z,19.97
2022-08-07T05:02:16.706Z,19.92
2022-08-07T05:05:11.931Z,19.88
2022-08-07T05:08:07.555Z,19.89
2022-08-07T05:10:48.345Z,19.89
2022-08-07T05:14:56.259Z,19.89
2022-08-07T05:16:34.166Z,19.91
2022-08-07T05:19:16.965Z,19.87
2022-08-07T05:21:59.520Z,19.82
2022-08-07T05:24:39.411Z,19.79
2022-08-07T05:28:01.821Z,19.75
2022-08-07T05:30:01.643Z,19.71
2022-08-07T05:32:30.935Z,19.67
2022-08-07T05:35:00.401Z,19.66
2022-08-07T05:37:32.405Z,19.68
2022-08-07T05:40:18.662Z,19.66
2022-08-07T05:42:56.339Z,19.59
2022-08-07T05:45:47.500Z,19.52
2022-08-07T05:48:16.593Z,19.56
2022-08-07T05:50:46.140Z,19.52
2022-08-07T05:54:14.044Z,19.50
2022-08-07T05:56:05.819Z,19.48
2022-08-07T05:58:37.385Z,19.43
2022-08-07T06:01:10.958Z,19.42
2022-08-07T06:03:53.167Z,19.40
2022-08-07T06:06:29.554Z,19.39
2022-08-07T06:09:04.603Z,19.37
2022-08-07T06:11:35.195Z,19.32
2022-08-07T06:14:12.538Z,19.27
2022-08-07T06:16:50.765Z,19.26
2022-08-07T06:19:57.496Z,19.25
2022-08-07T06:22:24.170Z,19.26
2022-08-07T06:24:57.892Z,19.26
2022-08-07T06:28:00.457Z,19.23
2022-08-07T06:30:32.196Z,19.23
2022-08-07T06:33:05.365Z,19.27
2022-08-07T06:35:47.722Z,19.26
2022-08-07T06:38:30.305Z,19.25
2022-08-07T06:41:01.585Z,19.22
2022-08-07T06:43:39.757Z,19.19
2022-08-07T06:46:12.171Z,19.15
2022-08-07T06:48:44.482Z,19.13
2022-08-07T06:51:31.333Z,19.16
2022-08-07T06:55:28.648Z,19.19
2022-08-07T06:56:57.526Z,19.22
2022-08-07T07:00:11.708Z,19.18
2022-08-07T07:02:48.123Z,19.14
2022-08-07T07:05:13.073Z,19.11
2022-08-07T07:07:59.981Z,19.11
2022-08-07T07:10:34.481Z,19.12
2022-08-07T07:13:17.195Z,19.09
2022-08-07T07:16:12.950Z,19.06
2022-08-07T07:18:51.761Z,19.06
2022-08-07T07:21:40.540Z,19.06
2022-08-07T07:24:19.901Z,19.08
2022-08-07T07:26:51.840Z,19.07
2022-08-07T07:29:39.209Z,19.06
2022-08-07T07:32:15.676Z,19.07
2022-08-07T07:34:49.125Z,19.06
2022-08-07T07:37:21.864Z,19.05
2022-08-07T07:40:17.794Z,19.03
2022-08-07T07:42:51.342Z,19.03
2022-08-07T07:46:37.854Z,19.03
2022-08-07T07:48:34.753Z,19.04
2022-08-07T07:51:07.982Z,19.03
2022-08-07T07:53:52.000Z,19.02
2022-08-07T07:56:30.629Z,18.98
2022-08-07T07:59:06.956Z,18.94
2022-08-07T08:02:02.947Z,18.92
2022-08-07T08:04:33.301Z,18.87
2022-08-07T08:07:07.554Z,18.86
2022-08-07T08:09:52.577Z,18.84
2022-08-07T08:12:52.562Z,18.84
2022-08-07T08:15:16.013Z,18.86
2022-08-07T08:17:57.969Z,18.83
2022-08-07T08:20:32.042Z,18.82
2022-08-07T08:23:20.678Z,18.82
2022-08-07T08:26:11.123Z,18.79
2022-08-07T08:28:45.021Z,18.78
2022-08-07T08:31:30.073Z,18.73
2022-08-07T08:34:26.763Z,18.72
2022-08-07T08:36:58.736Z,18.74
2022-08-07T08:39:39.030Z,18.72
2022-08-07T08:42:28.147Z,18.72
2022-08-07T08:45:15.368Z,18.72
2022-08-07T08:48:06.001Z,18.71
2022-08-07T08:51:29.646Z,18.68
2022-08-07T08:54:16.205Z,18.67
2022-08-07T08:56:51.120Z,18.67
2022-08-07T08:59:29.840Z,18.67
2022-08-07T09:02:35.246Z,18.65
2022-08-07T09:05:31.907Z,18.62
2022-08-07T09:08:17.820Z,18.59
2022-08-07T09:11:08.192Z,18.55
2022-08-07T09:14:20.880Z,18.52
2022-08-07T09:17:33.827Z,18.49
2022-08-07T09:20:35.422Z,18.45
2022-08-07T09:24:31.055Z,18.41
2022-08-07T09:26:29.520Z,18.33
2022-08-07T09:30:01.730Z,18.29
2022-08-07T09:32:38.000Z,18.25
2022-08-07T09:36:04.273Z,18.25
2022-08-07T09:38:27.287Z,18.27
2022-08-07T09:41:36.458Z,18.26
2022-08-07T09:44:32.868Z,18.24
2022-08-07T09:48:00.163Z,18.23
2022-08-07T09:51:02.167Z,18.24
2022-08-07T09:53:40.854Z,18.24
2022-08-07T09:56:37.237Z,18.24
2022-08-07T09:59:29.449Z,18.19
2022-08-07T10:02:55.295Z,18.20
2022-08-07T10:06:04.448Z,18.15
2022-08-07T10:09:01.961Z,18.16
2022-08-07T10:12:00.374Z,18.15
2022-08-07T10:14:59.990Z,18.13
2022-08-07T10:18:01.874Z,18.12
2022-08-07T10:21:00.085Z,18.09
2022-08-07T10:24:06.734Z,18.05
2022-08-07T10:26:53.182Z,17.98
2022-08-07T10:29:45.528Z,17.92
2022-08-07T10:32:52.911Z,17.87
2022-08-07T10:35:53.325Z,17.81
2022-08-07T10:38:42.095Z,17.72
2022-08-07T10:41:46.819Z,17.73
2022-08-07T10:44:37.618Z,17.70
2022-08-07T10:47:14.727Z,17.72
2022-08-07T10:49:51.982Z,17.72
2022-08-07T10:52:31.772Z,17.71
2022-08-07T10:55:26.836Z,17.69
2022-08-07T10:58:18.006Z,17.64
2022-08-07T11:01:35.232Z,17.59
2022-08-07T11:04:51.279Z,17.54
2022-08-07T11:07:56.157Z,17.52
2022-08-07T11:10:27.490Z,17.50
2022-08-07T11:14:45.195Z,17.48
2022-08-07T11:16:30.639Z,17.45
2022-08-07T11:19:21.562Z,17.45
2022-08-07T11:22:32.196Z,17.47
2022-08-07T11:25:19.770Z,17.45
2022-08-07T11:28:15.474Z,17.43
2022-08-07T11:30:53.840Z,17.39
2022-08-07T11:34:00.586Z,17.37
2022-08-07T11:36:38.796Z,17.36
2022-08-07T11:39:19.791Z,17.34
2022-08-07T11:42:30.255Z,17.32
2022-08-07T11:45:12.391Z,17.31
2022-08-07T11:47:59.399Z,17.28
2022-08-07T11:51:00.838Z,17.23
2022-08-07T11:53:43.342Z,17.22
2022-08-07T11:56:56.348Z,17.24
2022-08-07T12:00:11.750Z,17.23
2022-08-07T12:02:31.089Z,17.19
2022-08-07T12:05:28.951Z,17.14
2022-08-07T12:08:31.797Z,17.11
2022-08-07T12:11:23.261Z,17.06
2022-08-07T12:14:23.284Z,17.02
2022-08-07T12:17:04.785Z,17.01
2022-08-07T12:20:05.554Z,17.01
2022-08-07T12:23:21.616Z,17.00
2022-08-07T12:26:23.045Z,16.99
2022-08-07T12:28:56.735Z,16.97
2022-08-07T12:32:04.155Z,16.94
2022-08-07T12:34:40.879Z,16.94
2022-08-07T12:37:16.529Z,16.97
2022-08-07T12:39:50.949Z,16.98
2022-08-07T12:42:27.544Z,17.02
2022-08-07T12:45:05.570Z,17.07
2022-08-07T12:48:27.666Z,17.11
2022-08-07T12:51:17.172Z,17.17
2022-08-07T12:54:38.659Z,17.23
2022-08-07T12:57:09.585Z,17.27
2022-08-07T12:59:53.801Z,17.32
2022-08-07T13:03:07.099Z,17.41
2022-08-07T13:06:04.894Z,17.48
2022-08-07T13:08:57.365Z,17.54
2022-08-07T13:11:31.734Z,17.56
2022-08-07T13:14:23.225Z,17.60
2022-08-07T13:17:06.717Z,17.63
2022-08-07T13:19:56.715Z,17.69
2022-08-07T13:22:33.564Z,17.74
2022-08-07T13:25:15.420Z,17.80
2022-08-07T13:28:20.441Z,17.85
2022-08-07T13:31:54.934Z,17.88
2022-08-07T13:35:08.823Z,17.91
2022-08-07T13:38:04.485Z,17.98
2022-08-07T13:40:47.296Z,18.03
2022-08-07T13:43:18.954Z,18.07
2022-08-07T13:46:11.577Z,18.13
2022-08-07T13:48:51.997Z,18.19
2022-08-07T13:52:04.852Z,18.21
2022-08-07T13:54:23.840Z,18.24
2022-08-07T13:56:59.608Z,18.28
2022-08-07T13:59:34.000Z,18.30
2022-08-07T14:02:14.074Z,18.32
2022-08-07T14:04:54.406Z,18.35
2022-08-07T14:07:28.746Z,18.37
2022-08-07T14:10:17.483Z,18.40
2022-08-07T14:13:03.910Z,18.43
2022-08-07T14:15:52.094Z,18.46
2022-08-07T14:18:39.647Z,18.48
2022-08-07T14:21:20.665Z,18.53
2022-08-07T14:24:02.073Z,18.58
2022-08-07T14:26:38.998Z,18.59
2022-08-07T14:30:05.395Z,18.61
2022-08-07T14:32:06.325Z,18.64
2022-08-07T14:34:45.813Z,18.70
2022-08-07T14:37:17.847Z,18.72
2022-08-07T14:40:17.797Z,18.75
2022-08-07T14:43:00.896Z,18.77
2022-08-07T14:45:46.657Z,18.77
2022-08-07T14:48:27.467Z,18.78
2022-08-07T14:51:00.121Z,18.78
2022-08-07T14:54:05.932Z,18.80
2022-08-07T14:56:32.825Z,18.81
2022-08-07T14:59:13.772Z,18.84
2022-08-07T15:02:01.856Z,18.85
2022-08-07T15:04:31.387Z,18.89
2022-08-07T15:07:02.111Z,18.93
2022-08-07T15:12:42.295Z,19.06
2022-08-07T15:15:21.233Z,19.13
2022-08-07T15:18:02.797Z,19.18
2022-08-07T15:20:55.050Z,19.20
2022-08-07T15:26:28.952Z,19.21
2022-08-07T15:30:09.323Z,19.26
2022-08-07T15:32:01.112Z,19.26
2022-08-07T15:34:50.819Z,19.20
2022-08-07T15:38:04.714Z,19.24
2022-08-07T15:40:34.304Z,19.30
2022-08-07T15:43:33.541Z,19.34
2022-08-07T15:46:38.469Z,19.40
2022-08-07T15:49:14.508Z,19.44
2022-08-07T15:54:45.523Z,19.57
2022-08-07T15:57:39.434Z,19.65
2022-08-07T16:00:31.804Z,19.72
2022-08-07T16:03:02.642Z,19.81
2022-08-07T16:05:32.555Z,19.90
2022-08-07T16:08:38.229Z,19.91
2022-08-07T16:11:26.750Z,19.93
2022-08-07T16:14:27.882Z,19.93
2022-08-07T16:18:01.840Z,19.99
2022-08-07T16:20:33.676Z,20.12
2022-08-07T16:23:25.143Z,20.31
2022-08-07T16:26:14.375Z,20.30
2022-08-07T16:30:08.698Z,20.36
2022-08-07T16:32:33.257Z,20.41
2022-08-07T16:35:51.821Z,20.43
2022-08-07T16:38:44.408Z,20.34
2022-08-07T16:41:41.721Z,20.39
2022-08-07T16:44:46.967Z,20.42
2022-08-07T16:47:51.171Z,20.61
2022-08-07T16:51:20.909Z,20.76
2022-08-07T16:54:03.108Z,20.82
2022-08-07T16:56:37.641Z,20.96
2022-08-07T16:59:46.141Z,21.08
2022-08-07T17:02:51.809Z,21.19
2022-08-07T17:06:28.441Z,21.27
2022-08-07T17:09:09.857Z,21.33
2022-08-07T17:12:01.508Z,21.40
2022-08-07T17:14:57.120Z,21.47
2022-08-07T17:17:54.057Z,21.58
2022-08-07T17:20:42.481Z,21.67
2022-08-07T17:23:34.495Z,21.69
2022-08-07T17:26:31.284Z,21.77
2022-08-07T17:30:13.939Z,21.82
2022-08-07T17:32:52.678Z,21.84
2022-08-07T17:35:54.899Z,21.85
2022-08-07T17:38:32.990Z,21.85
2022-08-07T17:42:02.968Z,21.89
2022-08-07T17:44:05.756Z,22.09
2022-08-07T17:47:05.200Z,22.22
2022-08-07T17:49:46.960Z,22.39
2022-08-07T17:53:06.730Z,22.43
2022-08-07T17:56:25.990Z,22.54
2022-08-07T17:58:57.333Z,22.64
2022-08-07T18:01:46.640Z,22.63
2022-08-07T18:04:46.322Z,22.62
2022-08-07T18:07:44.784Z,22.64
2022-08-07T18:12:07.375Z,22.63
2022-08-07T18:13:51.766Z,22.67
2022-08-07T18:16:33.455Z,22.73
2022-08-07T18:21:12.641Z,22.92
2022-08-07T18:22:14.912Z,23.08
2022-08-07T18:24:51.236Z,23.14
2022-08-07T18:27:57.840Z,23.08
2022-08-07T18:30:36.577Z,23.10
2022-08-07T18:33:32.800Z,23.21
2022-08-07T18:36:33.975Z,23.46
2022-08-07T18:40:07.919Z,23.69
2022-08-07T18:42:18.249Z,23.82
2022-08-07T18:45:42.727Z,23.99
2022-08-07T18:50:05.573Z,24.10
2022-08-07T18:52:25.647Z,24.18
2022-08-07T18:54:27.816Z,24.19
2022-08-07T18:57:30.218Z,24.25
2022-08-07T19:00:34.282Z,24.37
2022-08-07T19:03:16.024Z,24.41
2022-08-07T19:06:10.300Z,24.36
2022-08-07T19:08:58.587Z,24.39
2022-08-07T19:12:03.919Z,24.50
2022-08-07T19:14:50.842Z,24.63
2022-08-07T19:17:58.909Z,24.65
2022-08-07T19:20:29.674Z,24.67
2022-08-07T19:23:18.729Z,24.72
2022-08-07T19:26:24.083Z,24.75
2022-08-07T19:30:55.907Z,24.82
2022-08-07T19:32:10.249Z,24.98
2022-08-07T19:34:36.213Z,25.07
2022-08-07T19:37:17.050Z,25.16
2022-08-07T19:40:08.349Z,25.40
2022-08-07T19:42:45.209Z,25.43
2022-08-07T19:46:01.216Z,25.40
2022-08-07T19:48:18.697Z,25.40
2022-08-07T19:50:53.527Z,25.63
2022-08-07T19:54:31.591Z,25.82
2022-08-07T19:58:04.126Z,25.96
2022-08-07T19:59:07.440Z,26.01
2022-08-07T20:01:52.910Z,26.08
2022-08-07T20:04:37.398Z,26.25
2022-08-07T20:07:10.268Z,26.38
2022-08-07T20:10:33.726Z,26.41
2022-08-07T20:12:41.268Z,26.54
2022-08-07T20:15:18.868Z,26.53
2022-08-07T20:18:01.542Z,26.55
2022-08-07T20:20:34.084Z,26.66
2022-08-07T20:23:32.744Z,26.78
2022-08-07T20:26:03.926Z,26.83
2022-08-07T20:28:41.047Z,26.92
2022-08-07T20:31:21.256Z,27.11
2022-08-07T20:33:57.386Z,27.17
2022-08-07T20:36:30.604Z,27.28
2022-08-07T20:39:11.643Z,27.50
2022-08-07T20:41:53.919Z,27.48
2022-08-07T20:44:32.408Z,27.51
2022-08-07T20:47:09.213Z,27.56
2022-08-07T20:50:00.833Z,27.67
2022-08-07T20:52:52.092Z,27.89
2022-08-07T20:55:27.500Z,28.06
2022-08-07T20:58:03.592Z,28.22
2022-08-07T21:00:47.611Z,28.27
2022-08-07T21:03:25.502Z,28.30
2022-08-07T21:06:22.307Z,28.27
2022-08-07T21:08:55.897Z,28.22
2022-08-07T21:11:40.008Z,28.27
2022-08-07T21:14:48.352Z,28.37
2022-08-07T21:18:03.549Z,28.40
2022-08-07T21:20:26.745Z,28.31
2022-08-07T21:23:07.665Z,28.24
2022-08-07T21:26:10.481Z,28.37
2022-08-07T21:28:51.330Z,28.47
2022-08-07T21:32:10.810Z,28.54
2022-08-07T21:34:57.516Z,28.61
2022-08-07T21:37:57.850Z,28.73
2022-08-07T21:40:50.281Z,28.89
2022-08-07T21:43:47.329Z,28.96
2022-08-07T21:46:35.922Z,28.95
2022-08-07T21:50:00.823Z,28.80
2022-08-07T21:52:36.081Z,28.76
2022-08-07T21:55:44.057Z,28.90
2022-08-07T21:58:32.882Z,29.10
2022-08-07T22:01:08.399Z,29.23
2022-08-07T22:03:49.201Z,28.90
2022-08-07T22:06:30.516Z,28.95
2022-08-07T22:09:11.689Z,28.95
2022-08-07T22:12:04.775Z,29.01
2022-08-07T22:14:59.808Z,28.88
2022-08-07T22:17:36.735Z,28.94
2022-08-07T22:20:32.167Z,29.23
2022-08-07T22:23:27.372Z,29.49
2022-08-07T22:26:14.888Z,29.13
2022-08-07T22:29:00.437Z,28.93
2022-08-07T22:32:00.158Z,28.88
2022-08-07T22:34:59.570Z,28.96
2022-08-07T22:38:03.861Z,28.93
2022-08-07T22:40:59.928Z,29.09
2022-08-07T22:43:50.400Z,28.68
2022-08-07T22:47:06.372Z,28.39
2022-08-07T22:49:55.452Z,28.45
2022-08-07T22:53:04.191Z,28.39
2022-08-07T22:55:44.733Z,28.50
2022-08-07T22:58:38.749Z,28.55
2022-08-07T23:01:49.602Z,28.56
2022-08-07T23:04:58.006Z,28.40
2022-08-07T23:08:24.317Z,28.09
2022-08-07T23:11:10.444Z,27.90
2022-08-07T23:14:15.281Z,27.75
2022-08-07T23:17:15.881Z,27.66
2022-08-07T23:20:40.474Z,27.35
2022-08-07T23:24:05.086Z,27.24
2022-08-07T23:26:55.053Z,27.02
2022-08-07T23:29:43.817Z,26.85
2022-08-07T23:34:33.814Z,26.62
2022-08-07T23:36:17.493Z,26.52
2022-08-07T23:39:14.809Z,26.40
2022-08-07T23:42:37.773Z,26.28
2022-08-07T23:45:33.236Z,26.05
2022-08-07T23:48:30.661Z,25.90
2022-08-07T23:53:00.638Z,25.95
2022-08-07T23:54:46.442Z,25.98
2022-08-07T23:57:39.040Z,25.89
